sensor_id;sensor_type;location;lat;lon;timestamp;P1;durP1;ratioP1;P2;durP2;ratioP2
14900;SDS011;7542;49.078;9.194;2023-06-10T00:00:34;2.92;;;2.72;;
14900;SDS011;7542;49.078;9.194;2023-06-10T00:01:37;2.70;;;2.55;;
14900;SDS011;7542;49.078;9.194;2023-06-10T00:02:39;2.92;;;2.83;;
14900;SDS011;7542;49.078;9.194;2023-06-10T00:03:43;2.83;;;2.72;;
14900;SDS011;7542;49.078;9.194;2023-06-10T00:04:45;3.15;;;2.88;;
14900;SDS011;7542;49.078;9.194;2023-06-10T00:05:47;2.75;;;2.65;;
14900;SDS011;7542;49.078;9.194;2023-06-10T00:06:50;3.10;;;2.60;;
14900;SDS011;7542;49.078;9.194;2023-06-10T00:07:52;2.83;;;2.72;;
14900;SDS011;7542;49.078;9.194;2023-06-10T00:08:56;2.77;;;2.50;;
14900;SDS011;7542;49.078;9.194;2023-06-10T00:09:59;3.03;;;2.87;;
14900;SDS011;7542;49.078;9.194;2023-06-10T00:11:03;3.15;;;2.97;;
14900;SDS011;7542;49.078;9.194;2023-06-10T00:12:06;2.63;;;2.53;;
14900;SDS011;7542;49.078;9.194;2023-06-10T00:13:12;2.55;;;2.45;;
14900;SDS011;7542;49.078;9.194;2023-06-10T00:14:15;2.70;;;2.60;;
14900;SDS011;7542;49.078;9.194;2023-06-10T00:15:17;2.83;;;2.72;;
14900;SDS011;7542;49.078;9.194;2023-06-10T00:16:19;2.90;;;2.80;;
14900;SDS011;7542;49.078;9.194;2023-06-10T00:17:21;2.78;;;2.67;;
14900;SDS011;7542;49.078;9.194;2023-06-10T00:18:24;2.88;;;2.78;;
14900;SDS011;7542;49.078;9.194;2023-06-10T00:19:28;2.63;;;2.53;;
14900;SDS011;7542;49.078;9.194;2023-06-10T00:20:33;3.08;;;2.90;;
14900;SDS011;7542;49.078;9.194;2023-06-10T00:21:37;2.75;;;2.60;;
14900;SDS011;7542;49.078;9.194;2023-06-10T00:22:41;3.42;;;2.60;;
14900;SDS011;7542;49.078;9.194;2023-06-10T00:23:47;2.70;;;2.60;;
14900;SDS011;7542;49.078;9.194;2023-06-10T00:24:49;2.63;;;2.53;;
14900;SDS011;7542;49.078;9.194;2023-06-10T00:25:52;2.78;;;2.58;;
14900;SDS011;7542;49.078;9.194;2023-06-10T00:26:54;2.60;;;2.50;;
14900;SDS011;7542;49.078;9.194;2023-06-10T00:27:56;2.70;;;2.60;;
14900;SDS011;7542;49.078;9.194;2023-06-10T00:28:58;2.50;;;2.30;;
14900;SDS011;7542;49.078;9.194;2023-06-10T00:30:02;2.60;;;2.50;;
14900;SDS011;7542;49.078;9.194;2023-06-10T00:31:08;2.63;;;2.53;;
14900;SDS011;7542;49.078;9.194;2023-06-10T00:32:10;2.92;;;2.63;;
14900;SDS011;7542;49.078;9.194;2023-06-10T00:33:12;2.63;;;2.53;;
14900;SDS011;7542;49.078;9.194;2023-06-10T00:34:14;3.10;;;2.38;;
14900;SDS011;7542;49.078;9.194;2023-06-10T00:35:16;2.45;;;2.35;;
14900;SDS011;7542;49.078;9.194;2023-06-10T00:36:18;2.55;;;2.45;;
14900;SDS011;7542;49.078;9.194;2023-06-10T00:37:20;2.65;;;2.55;;
14900;SDS011;7542;49.078;9.194;2023-06-10T00:38:22;2.65;;;2.55;;
14900;SDS011;7542;49.078;9.194;2023-06-10T00:39:24;2.40;;;2.30;;
14900;SDS011;7542;49.078;9.194;2023-06-10T00:40:26;2.45;;;2.25;;
14900;SDS011;7542;49.078;9.194;2023-06-10T00:41:28;2.30;;;2.20;;
14900;SDS011;7542;49.078;9.194;2023-06-10T00:42:30;2.67;;;2.47;;
14900;SDS011;7542;49.078;9.194;2023-06-10T00:43:33;2.47;;;2.38;;
14900;SDS011;7542;49.078;9.194;2023-06-10T00:44:35;2.60;;;2.50;;
14900;SDS011;7542;49.078;9.194;2023-06-10T00:45:37;2.47;;;2.38;;
14900;SDS011;7542;49.078;9.194;2023-06-10T00:46:39;2.55;;;2.45;;
14900;SDS011;7542;49.078;9.194;2023-06-10T00:47:43;2.28;;;2.17;;
14900;SDS011;7542;49.078;9.194;2023-06-10T00:48:45;2.70;;;2.60;;
14900;SDS011;7542;49.078;9.194;2023-06-10T00:49:48;2.53;;;2.42;;
14900;SDS011;7542;49.078;9.194;2023-06-10T00:50:52;2.40;;;2.30;;
14900;SDS011;7542;49.078;9.194;2023-06-10T00:51:54;2.47;;;2.38;;
14900;SDS011;7542;49.078;9.194;2023-06-10T00:52:56;2.67;;;2.58;;
14900;SDS011;7542;49.078;9.194;2023-06-10T00:54:01;2.80;;;2.60;;
14900;SDS011;7542;49.078;9.194;2023-06-10T00:55:04;2.70;;;2.60;;
14900;SDS011;7542;49.078;9.194;2023-06-10T00:56:09;2.45;;;2.35;;
14900;SDS011;7542;49.078;9.194;2023-06-10T00:57:12;2.95;;;2.85;;
14900;SDS011;7542;49.078;9.194;2023-06-10T00:58:17;3.20;;;3.05;;
14900;SDS011;7542;49.078;9.194;2023-06-10T00:59:19;2.80;;;2.70;;
14900;SDS011;7542;49.078;9.194;2023-06-10T01:00:21;3.03;;;2.83;;
14900;SDS011;7542;49.078;9.194;2023-06-10T01:01:24;2.90;;;2.70;;
14900;SDS011;7542;49.078;9.194;2023-06-10T01:02:27;3.20;;;3.10;;
14900;SDS011;7542;49.078;9.194;2023-06-10T01:03:30;3.20;;;3.00;;
14900;SDS011;7542;49.078;9.194;2023-06-10T01:04:33;3.40;;;3.13;;
14900;SDS011;7542;49.078;9.194;2023-06-10T01:05:36;3.20;;;3.00;;
14900;SDS011;7542;49.078;9.194;2023-06-10T01:10:01;3.25;;;3.05;;
14900;SDS011;7542;49.078;9.194;2023-06-10T01:11:21;3.63;;;3.33;;
14900;SDS011;7542;49.078;9.194;2023-06-10T01:14:04;3.63;;;3.42;;
14900;SDS011;7542;49.078;9.194;2023-06-10T01:15:09;3.75;;;3.45;;
14900;SDS011;7542;49.078;9.194;2023-06-10T01:16:12;3.80;;;3.50;;
14900;SDS011;7542;49.078;9.194;2023-06-10T01:17:14;3.53;;;3.33;;
14900;SDS011;7542;49.078;9.194;2023-06-10T01:18:18;3.47;;;3.28;;
14900;SDS011;7542;49.078;9.194;2023-06-10T01:19:20;3.85;;;3.55;;
14900;SDS011;7542;49.078;9.194;2023-06-10T01:20:25;3.58;;;3.38;;
14900;SDS011;7542;49.078;9.194;2023-06-10T01:21:30;3.57;;;3.37;;
14900;SDS011;7542;49.078;9.194;2023-06-10T01:22:35;3.75;;;3.45;;
14900;SDS011;7542;49.078;9.194;2023-06-10T01:23:37;3.78;;;3.58;;
14900;SDS011;7542;49.078;9.194;2023-06-10T01:24:39;3.60;;;3.40;;
14900;SDS011;7542;49.078;9.194;2023-06-10T01:25:46;3.67;;;3.47;;
14900;SDS011;7542;49.078;9.194;2023-06-10T01:27:00;3.95;;;3.75;;
14900;SDS011;7542;49.078;9.194;2023-06-10T01:28:18;3.50;;;3.30;;
14900;SDS011;7542;49.078;9.194;2023-06-10T01:29:50;3.60;;;3.30;;
14900;SDS011;7542;49.078;9.194;2023-06-10T01:31:13;3.58;;;3.35;;
14900;SDS011;7542;49.078;9.194;2023-06-10T01:32:39;3.38;;;3.17;;
14900;SDS011;7542;49.078;9.194;2023-06-10T01:33:47;3.53;;;3.33;;
14900;SDS011;7542;49.078;9.194;2023-06-10T01:34:53;3.58;;;3.33;;
14900;SDS011;7542;49.078;9.194;2023-06-10T01:35:57;3.75;;;3.55;;
14900;SDS011;7542;49.078;9.194;2023-06-10T01:37:01;3.72;;;3.50;;
14900;SDS011;7542;49.078;9.194;2023-06-10T01:38:05;3.75;;;3.55;;
14900;SDS011;7542;49.078;9.194;2023-06-10T01:39:08;4.20;;;3.92;;
14900;SDS011;7542;49.078;9.194;2023-06-10T01:40:14;3.90;;;3.70;;
14900;SDS011;7542;49.078;9.194;2023-06-10T01:41:18;4.13;;;3.80;;
14900;SDS011;7542;49.078;9.194;2023-06-10T01:42:22;3.88;;;3.67;;
14900;SDS011;7542;49.078;9.194;2023-06-10T01:43:26;4.13;;;3.90;;
14900;SDS011;7542;49.078;9.194;2023-06-10T01:44:28;4.70;;;4.10;;
14900;SDS011;7542;49.078;9.194;2023-06-10T01:45:30;4.10;;;3.80;;
14900;SDS011;7542;49.078;9.194;2023-06-10T01:46:32;4.20;;;3.90;;
14900;SDS011;7542;49.078;9.194;2023-06-10T01:47:34;4.18;;;3.80;;
14900;SDS011;7542;49.078;9.194;2023-06-10T01:48:37;4.45;;;4.15;;
14900;SDS011;7542;49.078;9.194;2023-06-10T01:49:39;4.57;;;4.28;;
14900;SDS011;7542;49.078;9.194;2023-06-10T01:50:41;4.68;;;4.22;;
14900;SDS011;7542;49.078;9.194;2023-06-10T01:51:45;4.22;;;3.92;;
14900;SDS011;7542;49.078;9.194;2023-06-10T01:52:46;4.23;;;3.93;;
14900;SDS011;7542;49.078;9.194;2023-06-10T01:53:48;4.30;;;4.00;;
14900;SDS011;7542;49.078;9.194;2023-06-10T01:54:50;4.13;;;3.92;;
14900;SDS011;7542;49.078;9.194;2023-06-10T01:55:52;4.03;;;3.83;;
14900;SDS011;7542;49.078;9.194;2023-06-10T01:56:54;4.30;;;4.10;;
14900;SDS011;7542;49.078;9.194;2023-06-10T01:57:56;4.15;;;3.95;;
14900;SDS011;7542;49.078;9.194;2023-06-10T01:58:58;4.00;;;3.80;;
14900;SDS011;7542;49.078;9.194;2023-06-10T02:00:00;4.40;;;4.10;;
14900;SDS011;7542;49.078;9.194;2023-06-10T02:01:04;4.38;;;4.15;;
14900;SDS011;7542;49.078;9.194;2023-06-10T02:02:06;4.15;;;3.88;;
14900;SDS011;7542;49.078;9.194;2023-06-10T02:03:09;4.10;;;3.78;;
14900;SDS011;7542;49.078;9.194;2023-06-10T02:04:11;4.32;;;4.13;;
14900;SDS011;7542;49.078;9.194;2023-06-10T02:05:13;3.70;;;3.50;;
14900;SDS011;7542;49.078;9.194;2023-06-10T02:06:15;4.13;;;3.83;;
14900;SDS011;7542;49.078;9.194;2023-06-10T02:07:17;3.85;;;3.55;;
14900;SDS011;7542;49.078;9.194;2023-06-10T02:08:19;3.65;;;3.45;;
14900;SDS011;7542;49.078;9.194;2023-06-10T02:09:21;4.25;;;3.97;;
14900;SDS011;7542;49.078;9.194;2023-06-10T02:10:24;4.00;;;3.80;;
14900;SDS011;7542;49.078;9.194;2023-06-10T02:11:26;4.00;;;3.80;;
14900;SDS011;7542;49.078;9.194;2023-06-10T02:12:28;4.32;;;4.03;;
14900;SDS011;7542;49.078;9.194;2023-06-10T02:13:30;4.85;;;4.25;;
14900;SDS011;7542;49.078;9.194;2023-06-10T02:14:32;4.05;;;3.85;;
14900;SDS011;7542;49.078;9.194;2023-06-10T02:15:34;4.35;;;4.05;;
14900;SDS011;7542;49.078;9.194;2023-06-10T02:16:37;4.00;;;3.80;;
14900;SDS011;7542;49.078;9.194;2023-06-10T02:17:39;4.38;;;4.00;;
14900;SDS011;7542;49.078;9.194;2023-06-10T02:18:41;4.38;;;4.05;;
14900;SDS011;7542;49.078;9.194;2023-06-10T02:19:44;4.15;;;3.85;;
14900;SDS011;7542;49.078;9.194;2023-06-10T02:20:53;4.53;;;4.22;;
14900;SDS011;7542;49.078;9.194;2023-06-10T02:21:56;4.50;;;4.10;;
14900;SDS011;7542;49.078;9.194;2023-06-10T02:22:58;4.47;;;4.05;;
14900;SDS011;7542;49.078;9.194;2023-06-10T02:24:01;4.07;;;3.78;;
14900;SDS011;7542;49.078;9.194;2023-06-10T02:25:03;4.20;;;3.75;;
14900;SDS011;7542;49.078;9.194;2023-06-10T02:26:07;4.43;;;4.13;;
14900;SDS011;7542;49.078;9.194;2023-06-10T02:27:09;4.25;;;3.95;;
14900;SDS011;7542;49.078;9.194;2023-06-10T02:28:11;4.13;;;3.80;;
14900;SDS011;7542;49.078;9.194;2023-06-10T02:29:13;4.20;;;3.90;;
14900;SDS011;7542;49.078;9.194;2023-06-10T02:30:15;4.13;;;3.83;;
14900;SDS011;7542;49.078;9.194;2023-06-10T02:31:17;4.07;;;3.78;;
14900;SDS011;7542;49.078;9.194;2023-06-10T02:32:19;3.95;;;3.75;;
14900;SDS011;7542;49.078;9.194;2023-06-10T02:33:21;4.13;;;3.83;;
14900;SDS011;7542;49.078;9.194;2023-06-10T02:34:25;3.95;;;3.65;;
14900;SDS011;7542;49.078;9.194;2023-06-10T02:35:27;4.30;;;4.00;;
14900;SDS011;7542;49.078;9.194;2023-06-10T02:36:29;4.60;;;4.30;;
14900;SDS011;7542;49.078;9.194;2023-06-10T02:37:31;4.07;;;3.83;;
14900;SDS011;7542;49.078;9.194;2023-06-10T02:38:33;4.28;;;3.97;;
14900;SDS011;7542;49.078;9.194;2023-06-10T02:39:35;3.80;;;3.60;;
14900;SDS011;7542;49.078;9.194;2023-06-10T02:40:37;3.97;;;3.67;;
14900;SDS011;7542;49.078;9.194;2023-06-10T02:41:40;3.83;;;3.60;;
14900;SDS011;7542;49.078;9.194;2023-06-10T02:42:42;4.25;;;3.95;;
14900;SDS011;7542;49.078;9.194;2023-06-10T02:43:44;4.10;;;3.90;;
14900;SDS011;7542;49.078;9.194;2023-06-10T02:44:46;3.95;;;3.70;;
14900;SDS011;7542;49.078;9.194;2023-06-10T02:45:48;4.10;;;3.90;;
14900;SDS011;7542;49.078;9.194;2023-06-10T02:46:50;3.92;;;3.63;;
14900;SDS011;7542;49.078;9.194;2023-06-10T02:47:51;4.32;;;4.00;;
14900;SDS011;7542;49.078;9.194;2023-06-10T02:48:54;3.97;;;3.33;;
14900;SDS011;7542;49.078;9.194;2023-06-10T02:49:56;4.03;;;3.83;;
14900;SDS011;7542;49.078;9.194;2023-06-10T02:50:58;3.80;;;3.60;;
14900;SDS011;7542;49.078;9.194;2023-06-10T02:52:00;4.20;;;3.90;;
14900;SDS011;7542;49.078;9.194;2023-06-10T02:53:02;4.40;;;4.05;;
14900;SDS011;7542;49.078;9.194;2023-06-10T02:54:04;3.60;;;3.50;;
14900;SDS011;7542;49.078;9.194;2023-06-10T02:55:06;4.05;;;3.78;;
14900;SDS011;7542;49.078;9.194;2023-06-10T02:56:09;4.00;;;3.80;;
14900;SDS011;7542;49.078;9.194;2023-06-10T02:57:11;3.58;;;3.38;;
14900;SDS011;7542;49.078;9.194;2023-06-10T02:58:13;3.90;;;3.70;;
14900;SDS011;7542;49.078;9.194;2023-06-10T02:59:15;3.70;;;3.50;;
14900;SDS011;7542;49.078;9.194;2023-06-10T03:00:17;3.85;;;3.65;;
14900;SDS011;7542;49.078;9.194;2023-06-10T03:01:21;3.70;;;3.50;;
14900;SDS011;7542;49.078;9.194;2023-06-10T03:02:23;3.97;;;3.47;;
14900;SDS011;7542;49.078;9.194;2023-06-10T03:03:29;3.80;;;3.60;;
14900;SDS011;7542;49.078;9.194;2023-06-10T03:04:31;4.05;;;3.85;;
14900;SDS011;7542;49.078;9.194;2023-06-10T03:05:34;3.90;;;3.65;;
14900;SDS011;7542;49.078;9.194;2023-06-10T03:06:36;3.58;;;3.28;;
14900;SDS011;7542;49.078;9.194;2023-06-10T03:07:39;3.85;;;3.65;;
14900;SDS011;7542;49.078;9.194;2023-06-10T03:08:42;3.80;;;3.60;;
14900;SDS011;7542;49.078;9.194;2023-06-10T03:09:44;3.63;;;3.53;;
14900;SDS011;7542;49.078;9.194;2023-06-10T03:10:46;3.80;;;3.60;;
14900;SDS011;7542;49.078;9.194;2023-06-10T03:11:48;4.53;;;4.20;;
14900;SDS011;7542;49.078;9.194;2023-06-10T03:12:50;4.22;;;3.92;;
14900;SDS011;7542;49.078;9.194;2023-06-10T03:13:52;3.80;;;3.50;;
14900;SDS011;7542;49.078;9.194;2023-06-10T03:14:57;3.60;;;3.40;;
14900;SDS011;7542;49.078;9.194;2023-06-10T03:15:59;3.97;;;3.67;;
14900;SDS011;7542;49.078;9.194;2023-06-10T03:17:01;3.92;;;3.65;;
14900;SDS011;7542;49.078;9.194;2023-06-10T03:18:04;4.00;;;3.70;;
14900;SDS011;7542;49.078;9.194;2023-06-10T03:19:08;3.63;;;3.42;;
14900;SDS011;7542;49.078;9.194;2023-06-10T03:20:10;3.77;;;3.57;;
14900;SDS011;7542;49.078;9.194;2023-06-10T03:21:13;4.03;;;3.73;;
14900;SDS011;7542;49.078;9.194;2023-06-10T03:22:16;3.90;;;3.60;;
14900;SDS011;7542;49.078;9.194;2023-06-10T03:23:18;3.40;;;3.30;;
14900;SDS011;7542;49.078;9.194;2023-06-10T03:24:20;3.60;;;3.40;;
14900;SDS011;7542;49.078;9.194;2023-06-10T03:25:23;3.63;;;3.43;;
14900;SDS011;7542;49.078;9.194;2023-06-10T03:26:27;3.47;;;3.28;;
14900;SDS011;7542;49.078;9.194;2023-06-10T03:27:29;4.00;;;3.70;;
14900;SDS011;7542;49.078;9.194;2023-06-10T03:28:31;3.80;;;3.60;;
14900;SDS011;7542;49.078;9.194;2023-06-10T03:29:33;3.70;;;3.40;;
14900;SDS011;7542;49.078;9.194;2023-06-10T03:30:35;3.40;;;3.20;;
14900;SDS011;7542;49.078;9.194;2023-06-10T03:31:37;3.47;;;3.28;;
14900;SDS011;7542;49.078;9.194;2023-06-10T03:32:40;3.60;;;3.40;;
14900;SDS011;7542;49.078;9.194;2023-06-10T03:33:42;3.60;;;3.42;;
14900;SDS011;7542;49.078;9.194;2023-06-10T03:34:44;3.60;;;3.40;;
14900;SDS011;7542;49.078;9.194;2023-06-10T03:35:46;3.77;;;3.40;;
14900;SDS011;7542;49.078;9.194;2023-06-10T03:36:48;3.73;;;3.53;;
14900;SDS011;7542;49.078;9.194;2023-06-10T03:37:50;4.03;;;3.80;;
14900;SDS011;7542;49.078;9.194;2023-06-10T03:38:52;3.30;;;3.20;;
14900;SDS011;7542;49.078;9.194;2023-06-10T03:39:58;3.60;;;3.30;;
14900;SDS011;7542;49.078;9.194;2023-06-10T03:41:00;3.53;;;3.33;;
14900;SDS011;7542;49.078;9.194;2023-06-10T03:42:02;3.45;;;3.28;;
14900;SDS011;7542;49.078;9.194;2023-06-10T03:43:04;3.40;;;3.23;;
14900;SDS011;7542;49.078;9.194;2023-06-10T03:44:06;3.40;;;3.20;;
14900;SDS011;7542;49.078;9.194;2023-06-10T03:45:08;3.57;;;3.37;;
14900;SDS011;7542;49.078;9.194;2023-06-10T03:46:11;3.63;;;3.43;;
14900;SDS011;7542;49.078;9.194;2023-06-10T03:47:13;3.53;;;3.23;;
14900;SDS011;7542;49.078;9.194;2023-06-10T03:48:15;3.70;;;3.50;;
14900;SDS011;7542;49.078;9.194;2023-06-10T03:49:17;3.57;;;3.37;;
14900;SDS011;7542;49.078;9.194;2023-06-10T03:50:19;3.30;;;3.10;;
14900;SDS011;7542;49.078;9.194;2023-06-10T03:51:21;3.80;;;3.60;;
14900;SDS011;7542;49.078;9.194;2023-06-10T03:52:24;3.65;;;3.35;;
14900;SDS011;7542;49.078;9.194;2023-06-10T03:53:26;3.70;;;3.40;;
14900;SDS011;7542;49.078;9.194;2023-06-10T03:54:28;3.53;;;3.20;;
14900;SDS011;7542;49.078;9.194;2023-06-10T03:55:30;3.60;;;3.40;;
14900;SDS011;7542;49.078;9.194;2023-06-10T03:56:32;3.43;;;3.20;;
14900;SDS011;7542;49.078;9.194;2023-06-10T03:57:34;3.73;;;3.53;;
14900;SDS011;7542;49.078;9.194;2023-06-10T03:58:36;3.50;;;3.20;;
14900;SDS011;7542;49.078;9.194;2023-06-10T03:59:38;3.40;;;3.10;;
14900;SDS011;7542;49.078;9.194;2023-06-10T04:00:40;3.33;;;3.13;;
14900;SDS011;7542;49.078;9.194;2023-06-10T04:01:43;3.88;;;3.55;;
14900;SDS011;7542;49.078;9.194;2023-06-10T04:02:45;3.43;;;3.23;;
14900;SDS011;7542;49.078;9.194;2023-06-10T04:03:48;3.60;;;3.40;;
14900;SDS011;7542;49.078;9.194;2023-06-10T04:04:52;3.40;;;3.20;;
14900;SDS011;7542;49.078;9.194;2023-06-10T04:05:54;3.10;;;3.00;;
14900;SDS011;7542;49.078;9.194;2023-06-10T04:06:56;3.58;;;3.38;;
14900;SDS011;7542;49.078;9.194;2023-06-10T04:07:59;3.73;;;3.53;;
14900;SDS011;7542;49.078;9.194;2023-06-10T04:09:02;3.40;;;3.30;;
14900;SDS011;7542;49.078;9.194;2023-06-10T04:10:04;3.67;;;3.37;;
14900;SDS011;7542;49.078;9.194;2023-06-10T04:11:08;3.00;;;2.90;;
14900;SDS011;7542;49.078;9.194;2023-06-10T04:12:10;2.93;;;2.83;;
14900;SDS011;7542;49.078;9.194;2023-06-10T04:13:12;3.13;;;3.00;;
14900;SDS011;7542;49.078;9.194;2023-06-10T04:14:16;3.20;;;3.00;;
14900;SDS011;7542;49.078;9.194;2023-06-10T04:15:18;3.83;;;3.40;;
14900;SDS011;7542;49.078;9.194;2023-06-10T04:16:20;3.37;;;3.17;;
14900;SDS011;7542;49.078;9.194;2023-06-10T04:17:22;3.30;;;3.13;;
14900;SDS011;7542;49.078;9.194;2023-06-10T04:18:24;2.80;;;2.70;;
14900;SDS011;7542;49.078;9.194;2023-06-10T04:19:26;3.40;;;3.20;;
14900;SDS011;7542;49.078;9.194;2023-06-10T04:20:29;3.30;;;3.10;;
14900;SDS011;7542;49.078;9.194;2023-06-10T04:21:31;2.92;;;2.83;;
14900;SDS011;7542;49.078;9.194;2023-06-10T04:22:34;3.27;;;3.17;;
14900;SDS011;7542;49.078;9.194;2023-06-10T04:23:36;3.30;;;3.20;;
14900;SDS011;7542;49.078;9.194;2023-06-10T04:24:38;3.27;;;3.07;;
14900;SDS011;7542;49.078;9.194;2023-06-10T04:25:40;3.00;;;2.90;;
14900;SDS011;7542;49.078;9.194;2023-06-10T04:26:42;3.47;;;3.17;;
14900;SDS011;7542;49.078;9.194;2023-06-10T04:27:44;3.10;;;3.00;;
14900;SDS011;7542;49.078;9.194;2023-06-10T04:28:46;3.30;;;3.10;;
14900;SDS011;7542;49.078;9.194;2023-06-10T04:29:48;3.33;;;3.10;;
14900;SDS011;7542;49.078;9.194;2023-06-10T04:30:50;3.20;;;3.00;;
14900;SDS011;7542;49.078;9.194;2023-06-10T04:31:52;3.67;;;3.30;;
14900;SDS011;7542;49.078;9.194;2023-06-10T04:32:54;3.13;;;2.93;;
14900;SDS011;7542;49.078;9.194;2023-06-10T04:33:56;2.95;;;2.85;;
14900;SDS011;7542;49.078;9.194;2023-06-10T04:34:59;2.97;;;2.87;;
14900;SDS011;7542;49.078;9.194;2023-06-10T04:36:02;2.80;;;2.70;;
14900;SDS011;7542;49.078;9.194;2023-06-10T04:37:04;3.33;;;3.17;;
14900;SDS011;7542;49.078;9.194;2023-06-10T04:38:07;3.27;;;3.17;;
14900;SDS011;7542;49.078;9.194;2023-06-10T04:39:10;3.35;;;3.13;;
14900;SDS011;7542;49.078;9.194;2023-06-10T04:40:12;3.53;;;3.23;;
14900;SDS011;7542;49.078;9.194;2023-06-10T04:41:14;3.57;;;3.37;;
14900;SDS011;7542;49.078;9.194;2023-06-10T04:42:16;3.70;;;3.50;;
14900;SDS011;7542;49.078;9.194;2023-06-10T04:43:18;3.00;;;2.90;;
14900;SDS011;7542;49.078;9.194;2023-06-10T04:44:20;3.13;;;3.03;;
14900;SDS011;7542;49.078;9.194;2023-06-10T04:45:22;3.40;;;3.20;;
14900;SDS011;7542;49.078;9.194;2023-06-10T04:46:24;3.40;;;3.20;;
14900;SDS011;7542;49.078;9.194;2023-06-10T04:47:26;3.63;;;3.43;;
14900;SDS011;7542;49.078;9.194;2023-06-10T04:48:28;3.50;;;3.30;;
14900;SDS011;7542;49.078;9.194;2023-06-10T04:49:30;3.10;;;3.00;;
14900;SDS011;7542;49.078;9.194;2023-06-10T04:50:32;2.90;;;2.80;;
14900;SDS011;7542;49.078;9.194;2023-06-10T04:51:34;3.17;;;3.07;;
14900;SDS011;7542;49.078;9.194;2023-06-10T04:52:37;3.13;;;3.03;;
14900;SDS011;7542;49.078;9.194;2023-06-10T04:53:38;4.50;;;3.30;;
14900;SDS011;7542;49.078;9.194;2023-06-10T04:54:40;3.80;;;3.05;;
14900;SDS011;7542;49.078;9.194;2023-06-10T04:55:42;4.15;;;2.97;;
14900;SDS011;7542;49.078;9.194;2023-06-10T04:56:45;3.22;;;3.13;;
14900;SDS011;7542;49.078;9.194;2023-06-10T04:57:48;3.40;;;3.13;;
14900;SDS011;7542;49.078;9.194;2023-06-10T04:58:52;3.17;;;2.90;;
14900;SDS011;7542;49.078;9.194;2023-06-10T04:59:54;2.95;;;2.85;;
14900;SDS011;7542;49.078;9.194;2023-06-10T05:00:56;3.28;;;3.08;;
14900;SDS011;7542;49.078;9.194;2023-06-10T05:01:58;3.65;;;3.45;;
14900;SDS011;7542;49.078;9.194;2023-06-10T05:03:00;3.10;;;2.90;;
14900;SDS011;7542;49.078;9.194;2023-06-10T05:04:02;3.28;;;3.13;;
14900;SDS011;7542;49.078;9.194;2023-06-10T05:05:06;3.58;;;3.38;;
14900;SDS011;7542;49.078;9.194;2023-06-10T05:06:09;3.20;;;3.10;;
14900;SDS011;7542;49.078;9.194;2023-06-10T05:07:11;3.22;;;3.13;;
14900;SDS011;7542;49.078;9.194;2023-06-10T05:08:13;3.00;;;2.90;;
14900;SDS011;7542;49.078;9.194;2023-06-10T05:09:15;3.47;;;3.28;;
14900;SDS011;7542;49.078;9.194;2023-06-10T05:10:18;3.28;;;3.08;;
14900;SDS011;7542;49.078;9.194;2023-06-10T05:11:20;3.20;;;3.00;;
14900;SDS011;7542;49.078;9.194;2023-06-10T05:12:21;3.40;;;3.30;;
14900;SDS011;7542;49.078;9.194;2023-06-10T05:13:23;2.78;;;2.67;;
14900;SDS011;7542;49.078;9.194;2023-06-10T05:14:25;3.10;;;2.97;;
14900;SDS011;7542;49.078;9.194;2023-06-10T05:15:28;3.30;;;3.10;;
14900;SDS011;7542;49.078;9.194;2023-06-10T05:16:31;2.85;;;2.75;;
14900;SDS011;7542;49.078;9.194;2023-06-10T05:17:34;3.63;;;2.95;;
14900;SDS011;7542;49.078;9.194;2023-06-10T05:18:38;3.13;;;2.90;;
14900;SDS011;7542;49.078;9.194;2023-06-10T05:19:40;3.47;;;3.17;;
14900;SDS011;7542;49.078;9.194;2023-06-10T05:20:44;3.28;;;2.97;;
14900;SDS011;7542;49.078;9.194;2023-06-10T05:21:46;3.10;;;2.90;;
14900;SDS011;7542;49.078;9.194;2023-06-10T05:22:49;5.18;;;3.28;;
14900;SDS011;7542;49.078;9.194;2023-06-10T05:23:51;5.80;;;3.00;;
14900;SDS011;7542;49.078;9.194;2023-06-10T05:24:53;2.70;;;2.60;;
14900;SDS011;7542;49.078;9.194;2023-06-10T05:25:55;3.20;;;3.00;;
14900;SDS011;7542;49.078;9.194;2023-06-10T05:26:57;2.90;;;2.70;;
14900;SDS011;7542;49.078;9.194;2023-06-10T05:27:59;3.27;;;3.07;;
14900;SDS011;7542;49.078;9.194;2023-06-10T05:29:00;2.83;;;2.63;;
14900;SDS011;7542;49.078;9.194;2023-06-10T05:30:02;3.10;;;3.00;;
14900;SDS011;7542;49.078;9.194;2023-06-10T05:31:05;3.03;;;2.80;;
14900;SDS011;7542;49.078;9.194;2023-06-10T05:32:07;2.50;;;2.40;;
14900;SDS011;7542;49.078;9.194;2023-06-10T05:33:10;2.70;;;2.60;;
14900;SDS011;7542;49.078;9.194;2023-06-10T05:34:12;2.80;;;2.63;;
14900;SDS011;7542;49.078;9.194;2023-06-10T05:35:14;2.70;;;2.60;;
14900;SDS011;7542;49.078;9.194;2023-06-10T05:36:16;3.15;;;2.97;;
14900;SDS011;7542;49.078;9.194;2023-06-10T05:37:18;2.83;;;2.72;;
14900;SDS011;7542;49.078;9.194;2023-06-10T05:38:20;3.40;;;3.20;;
14900;SDS011;7542;49.078;9.194;2023-06-10T05:39:22;3.05;;;2.85;;
14900;SDS011;7542;49.078;9.194;2023-06-10T05:40:23;2.97;;;2.83;;
14900;SDS011;7542;49.078;9.194;2023-06-10T05:41:25;2.90;;;2.80;;
14900;SDS011;7542;49.078;9.194;2023-06-10T05:42:27;3.33;;;2.80;;
14900;SDS011;7542;49.078;9.194;2023-06-10T05:43:29;2.85;;;2.67;;
14900;SDS011;7542;49.078;9.194;2023-06-10T05:44:31;2.90;;;2.80;;
14900;SDS011;7542;49.078;9.194;2023-06-10T05:45:33;3.08;;;2.97;;
14900;SDS011;7542;49.078;9.194;2023-06-10T05:46:36;2.88;;;2.72;;
14900;SDS011;7542;49.078;9.194;2023-06-10T05:47:38;3.33;;;2.70;;
14900;SDS011;7542;49.078;9.194;2023-06-10T05:48:41;2.72;;;2.63;;
14900;SDS011;7542;49.078;9.194;2023-06-10T05:49:43;2.90;;;2.80;;
14900;SDS011;7542;49.078;9.194;2023-06-10T05:50:46;3.00;;;2.80;;
14900;SDS011;7542;49.078;9.194;2023-06-10T05:51:49;3.08;;;2.80;;
14900;SDS011;7542;49.078;9.194;2023-06-10T05:52:53;2.60;;;2.40;;
14900;SDS011;7542;49.078;9.194;2023-06-10T05:53:56;2.80;;;2.70;;
14900;SDS011;7542;49.078;9.194;2023-06-10T05:54:58;3.28;;;3.05;;
14900;SDS011;7542;49.078;9.194;2023-06-10T05:56:00;3.05;;;2.70;;
14900;SDS011;7542;49.078;9.194;2023-06-10T05:57:03;2.88;;;2.70;;
14900;SDS011;7542;49.078;9.194;2023-06-10T05:58:05;3.10;;;2.90;;
14900;SDS011;7542;49.078;9.194;2023-06-10T05:59:07;2.95;;;2.45;;
14900;SDS011;7542;49.078;9.194;2023-06-10T06:00:09;2.60;;;2.50;;
14900;SDS011;7542;49.078;9.194;2023-06-10T06:01:11;2.80;;;2.60;;
14900;SDS011;7542;49.078;9.194;2023-06-10T06:02:14;2.55;;;2.45;;
14900;SDS011;7542;49.078;9.194;2023-06-10T06:03:16;2.97;;;2.78;;
14900;SDS011;7542;49.078;9.194;2023-06-10T06:04:19;2.63;;;2.50;;
14900;SDS011;7542;49.078;9.194;2023-06-10T06:05:21;2.60;;;2.50;;
14900;SDS011;7542;49.078;9.194;2023-06-10T06:06:23;2.70;;;2.60;;
14900;SDS011;7542;49.078;9.194;2023-06-10T06:07:26;2.85;;;2.70;;
14900;SDS011;7542;49.078;9.194;2023-06-10T06:08:28;2.78;;;2.47;;
14900;SDS011;7542;49.078;9.194;2023-06-10T06:09:30;2.42;;;2.33;;
14900;SDS011;7542;49.078;9.194;2023-06-10T06:10:33;2.65;;;2.50;;
14900;SDS011;7542;49.078;9.194;2023-06-10T06:11:35;2.50;;;2.40;;
14900;SDS011;7542;49.078;9.194;2023-06-10T06:12:37;2.92;;;2.55;;
14900;SDS011;7542;49.078;9.194;2023-06-10T06:13:39;2.33;;;2.22;;
14900;SDS011;7542;49.078;9.194;2023-06-10T06:14:42;2.45;;;2.35;;
14900;SDS011;7542;49.078;9.194;2023-06-10T06:15:45;2.38;;;2.28;;
14900;SDS011;7542;49.078;9.194;2023-06-10T06:16:48;2.50;;;2.40;;
14900;SDS011;7542;49.078;9.194;2023-06-10T06:17:50;2.60;;;2.50;;
14900;SDS011;7542;49.078;9.194;2023-06-10T06:18:54;2.60;;;2.50;;
14900;SDS011;7542;49.078;9.194;2023-06-10T06:19:55;2.88;;;2.67;;
14900;SDS011;7542;49.078;9.194;2023-06-10T06:20:57;2.47;;;2.38;;
14900;SDS011;7542;49.078;9.194;2023-06-10T06:22:00;2.42;;;2.33;;
14900;SDS011;7542;49.078;9.194;2023-06-10T06:23:01;2.55;;;2.45;;
14900;SDS011;7542;49.078;9.194;2023-06-10T06:24:03;2.65;;;2.55;;
14900;SDS011;7542;49.078;9.194;2023-06-10T06:25:06;2.30;;;2.20;;
14900;SDS011;7542;49.078;9.194;2023-06-10T06:26:09;2.90;;;2.70;;
14900;SDS011;7542;49.078;9.194;2023-06-10T06:27:11;2.70;;;2.60;;
14900;SDS011;7542;49.078;9.194;2023-06-10T06:28:13;2.45;;;2.35;;
14900;SDS011;7542;49.078;9.194;2023-06-10T06:29:15;2.70;;;2.60;;